Pagina principale
METAR-TAF:

METAR-TAF

Aeroporti :

Aeroporto di Győr-Pér

Győr, Ungheria

latitudine: 47-37-28N, longitudine: 017-48-49E, altezza: 129 m

Osservazione

Il bollettino è stato emesso 59 minuti fa, alle 08:45 UTC
Vento 5 kt da est/sud-est, variando fra est e sud/sud-est
Temperature 18°C
Umidità 52%
Pressione 1021 hPa
Visibilità 10 km o più
nessuna nube inferiore a 1500 m e nessun cumulonembo

METAR: LHPR 170845Z 11005KT 080V150 CAVOK 18/08 Q1021 RMK BLU

Ora: 11:44 (09:44 UTC)

Previsione

Il bollettino è stato emesso 1 ora e 29 minuti fa, alle 08:15 UTC
Previsione valida dal 17 alle 09 UTC al 17 alle 18 UTC
Vento 7 kt da est/sud-est
Visibilità 10 km o più
nessuna nube inferiore a 1500 m e nessun cumulonembo
Evoluzione graduale
dal 17 alle 16 UTC al 17 alle 18 UTC
Vento 3 kt da direzioni variabili

TAF: LHPR 170815Z 1709/1718 12007KT CAVOK BECMG 1716/1718 VRB03KT

Osservazioni e previsioni meteorologiche di più di 4000 aeroporti (messaggi METAR e TAF).

Le stazioni disponibili sono rappresentate dai dischi gialli e rossi sulla carta.

Puntare il mouse per vedere il nome della stazione.

Clicca sopra per visualizzare le osservazioni e previsioni meteorologiche.

Per cambiare la mappa : fare clic sui pulsanti verdi con una croce nera per ingrandire, il pulsante verde con un trattino per diminuire, o sulla freccia verde per le mappe adiacenti.


METAR-TAF: